Time;durP1;ratioP1;P1;durP2;ratioP2;P2;SDS_P1;SDS_P2;PMS_P1;PMS_P2;Temp;Humidity;BMP_temperature;BMP_pressure;BME280_temperature;BME280_humidity;BME280_pressure;Samples;Min_cycle;Max_cycle;Signal;HPM_P1;HPM_P2
2022/08/11 00:01:43;;;;;;;11.60;8.10;;;;;;;;;;5087125;28;20048;-63
2022/08/11 00:04:10;;;;;;;11.48;8.80;;;;;;;;;;5084369;28;20160;-63
2022/08/11 00:06:37;;;;;;;12.85;8.23;;;;;;;;;;5083391;28;20352;-63
2022/08/11 00:09:05;;;;;;;10.93;8.55;;;;;;;;;;5081010;28;20078;-63
2022/08/11 00:11:32;;;;;;;14.52;8.98;;;;;;;;;;5087474;28;20052;-63
2022/08/11 00:13:59;;;;;;;12.00;8.80;;;;;;;;;;5088592;28;20492;-63
2022/08/11 00:16:25;;;;;;;12.75;9.65;;;;;;;;;;5090218;28;20133;-63
2022/08/11 00:18:53;;;;;;;11.75;8.70;;;;;;;;;;5117508;27;21256;-63
2022/08/11 00:21:21;;;;;;;14.82;9.25;;;;;;;;;;5125858;27;20058;-63
2022/08/11 00:23:55;;;;;;;15.82;8.98;;;;;;;;;;5127718;27;20144;-63
2022/08/11 00:26:22;;;;;;;11.43;8.32;;;;;;;;;;5125995;27;20054;-63
2022/08/11 00:28:50;;;;;;;18.30;8.57;;;;;;;;;;5125385;27;20070;-63
2022/08/11 00:31:22;;;;;;;13.20;9.13;;;;;;;;;;5110301;27;20081;-63
2022/08/11 00:33:49;;;;;;;13.27;9.33;;;;;;;;;;5126342;27;20046;-63
2022/08/11 00:36:17;;;;;;;11.55;9.40;;;;;;;;;;5125038;27;20034;-63
2022/08/11 00:38:44;;;;;;;15.68;9.40;;;;;;;;;;5130811;27;20047;-63
2022/08/11 00:41:16;;;;;;;14.50;8.85;;;;;;;;;;5130620;27;20037;-63
2022/08/11 00:43:50;;;;;;;11.43;8.80;;;;;;;;;;5128344;27;20050;-63
2022/08/11 00:46:22;;;;;;;13.35;9.45;;;;;;;;;;5128580;27;20070;-63
2022/08/11 00:48:56;;;;;;;10.93;8.32;;;;;;;;;;5122489;27;20034;-63
2022/08/11 00:51:32;;;;;;;12.15;9.43;;;;;;;;;;5130347;27;20075;-63
2022/08/11 00:54:09;;;;;;;13.23;8.93;;;;;;;;;;5124126;27;20506;-63
2022/08/11 00:57:09;;;;;;;14.90;9.13;;;;;;;;;;5124423;27;20681;-63
2022/08/11 00:59:54;;;;;;;11.20;8.05;;;;;;;;;;5119939;27;20651;-63
2022/08/11 01:02:20;;;;;;;13.27;9.52;;;;;;;;;;5126554;27;20079;-63
2022/08/11 01:05:06;;;;;;;14.30;8.57;;;;;;;;;;5123497;27;20054;-63
2022/08/11 01:07:42;;;;;;;14.70;9.27;;;;;;;;;;5125795;27;20035;-63
2022/08/11 01:10:30;;;;;;;18.25;9.77;;;;;;;;;;5113989;27;20055;-63
2022/08/11 01:13:02;;;;;;;13.88;8.75;;;;;;;;;;5130835;27;20039;-63
2022/08/11 01:15:39;;;;;;;18.27;9.45;;;;;;;;;;5128750;27;20043;-63
2022/08/11 01:18:32;;;;;;;14.60;9.25;;;;;;;;;;5111304;27;20727;-62
2022/08/11 01:20:58;;;;;;;15.87;10.10;;;;;;;;;;5131901;27;20055;-63
2022/08/11 01:23:40;;;;;;;13.30;9.73;;;;;;;;;;5130044;27;20522;-63
2022/08/11 01:26:25;;;;;;;17.73;9.35;;;;;;;;;;5129994;27;20448;-63
2022/08/11 01:28:51;;;;;;;12.90;8.75;;;;;;;;;;5119245;27;20043;-63
2022/08/11 01:31:22;;;;;;;12.98;9.30;;;;;;;;;;5128623;27;20104;-63
2022/08/11 01:33:48;;;;;;;11.63;8.40;;;;;;;;;;5123520;27;20166;-63
2022/08/11 01:36:26;;;;;;;12.85;8.95;;;;;;;;;;5124831;27;20123;-62
2022/08/11 01:39:04;;;;;;;12.02;9.32;;;;;;;;;;5124619;27;20130;-63
2022/08/11 01:44:36;;;;;;;16.83;10.65;;;;;;;;;;5132307;27;20039;-63
2022/08/11 01:47:49;;;;;;;16.40;10.07;;;;;;;;;;5127978;27;20042;-62
2022/08/11 01:50:07;;;;;;;13.82;9.63;;;;;;;;;;5126105;27;20043;-63
2022/08/11 01:52:39;;;;;;;14.63;10.15;;;;;;;;;;5121035;27;20478;-63
2022/08/11 01:55:06;;;;;;;11.40;9.00;;;;;;;;;;5111324;27;20127;-63
2022/08/11 01:57:33;;;;;;;16.88;9.90;;;;;;;;;;5128008;27;20584;-63
2022/08/11 02:00:07;;;;;;;15.25;9.23;;;;;;;;;;5123690;27;20031;-63
2022/08/11 02:02:46;;;;;;;13.18;8.35;;;;;;;;;;5125632;27;20151;-62
2022/08/11 02:05:40;;;;;;;18.92;8.65;;;;;;;;;;5125112;27;20054;-63
2022/08/11 02:08:22;;;;;;;12.68;8.93;;;;;;;;;;5121288;27;20390;-63
2022/08/11 02:13:41;;;;;;;11.20;8.48;;;;;;;;;;5125830;27;20174;-61
2022/08/11 02:16:19;;;;;;;18.60;9.75;;;;;;;;;;5127654;27;20035;-61
2022/08/11 02:24:30;;;;;;;16.38;8.30;;;;;;;;;;5096679;28;20450;-61
2022/08/11 02:27:01;;;;;;;13.25;6.93;;;;;;;;;;5099208;27;20056;-61
2022/08/11 02:29:32;;;;;;;11.07;7.50;;;;;;;;;;5097915;27;20039;-61
2022/08/11 02:35:01;;;;;;;9.35;5.07;;;;;;;;;;5098703;28;20040;-61
2022/08/11 02:37:30;;;;;;;10.45;5.97;;;;;;;;;;5098216;28;20403;-61
2022/08/11 02:39:57;;;;;;;11.18;5.75;;;;;;;;;;5097242;28;20380;-61
2022/08/11 02:42:37;;;;;;;10.88;6.57;;;;;;;;;;5101052;28;20059;-61
2022/08/11 02:45:03;;;;;;;10.10;5.80;;;;;;;;;;5104844;27;20048;-61
2022/08/11 02:50:40;;;;;;;7.70;5.10;;;;;;;;;;5101424;27;20417;-61
2022/08/11 02:53:17;;;;;;;7.22;4.90;;;;;;;;;;5100401;27;20126;-61
2022/08/11 02:55:55;;;;;;;8.30;5.47;;;;;;;;;;5103556;27;20047;-61
2022/08/11 02:58:30;;;;;;;15.77;6.88;;;;;;;;;;5102475;27;20039;-61
2022/08/11 03:01:02;;;;;;;9.10;6.55;;;;;;;;;;5101993;27;20044;-61
2022/08/11 03:03:32;;;;;;;14.15;7.72;;;;;;;;;;5104726;27;20402;-61
2022/08/11 03:06:12;;;;;;;12.45;7.55;;;;;;;;;;5103880;27;20039;-61
2022/08/11 03:08:50;;;;;;;11.85;7.00;;;;;;;;;;5104403;27;20463;-61
2022/08/11 03:16:56;;;;;;;10.95;7.20;;;;;;;;;;5103749;27;20048;-61
2022/08/11 03:19:26;;;;;;;11.05;7.25;;;;;;;;;;5102759;27;20233;-61
2022/08/11 03:22:01;;;;;;;10.90;7.15;;;;;;;;;;5105158;27;20499;-61
2022/08/11 03:24:31;;;;;;;16.13;8.65;;;;;;;;;;5104564;27;20506;-61
2022/08/11 03:27:04;;;;;;;14.55;8.48;;;;;;;;;;5105623;27;20089;-61
2022/08/11 03:29:36;;;;;;;12.82;8.50;;;;;;;;;;5105684;27;20175;-61
2022/08/11 03:32:05;;;;;;;14.52;8.35;;;;;;;;;;5105293;27;20036;-61
2022/08/11 03:34:36;;;;;;;12.65;8.75;;;;;;;;;;5106185;27;20174;-61
2022/08/11 03:37:49;;;;;;;10.43;5.90;;;;;;;;;;5095679;27;21242;-61
2022/08/11 03:40:13;;;;;;;10.32;6.93;;;;;;;;;;5104947;27;20118;-61
2022/08/11 03:42:39;;;;;;;11.60;6.38;;;;;;;;;;5102763;27;20079;-61
2022/08/11 03:45:12;;;;;;;11.45;7.38;;;;;;;;;;5102899;27;20071;-61
2022/08/11 03:47:39;;;;;;;9.43;6.20;;;;;;;;;;5103937;27;20751;-61
2022/08/11 03:50:06;;;;;;;13.85;7.43;;;;;;;;;;5102662;27;20048;-61
2022/08/11 03:52:51;;;;;;;11.52;6.90;;;;;;;;;;5105596;27;20103;-61
2022/08/11 03:55:21;;;;;;;13.13;8.52;;;;;;;;;;5102796;27;20055;-61
2022/08/11 03:57:58;;;;;;;14.00;8.43;;;;;;;;;;5101871;27;20509;-61
2022/08/11 04:00:25;;;;;;;10.48;6.07;;;;;;;;;;5103018;28;20502;-61
2022/08/11 04:03:07;;;;;;;7.75;5.20;;;;;;;;;;5101840;27;20094;-61
2022/08/11 04:05:45;;;;;;;8.45;4.85;;;;;;;;;;5099181;27;20039;-61
2022/08/11 04:08:20;;;;;;;10.35;7.40;;;;;;;;;;5099474;28;20071;-61
2022/08/11 04:10:57;;;;;;;11.80;6.60;;;;;;;;;;5098409;27;20047;-61
2022/08/11 04:13:26;;;;;;;8.73;5.88;;;;;;;;;;5102962;27;20055;-61
2022/08/11 04:16:03;;;;;;;11.13;7.82;;;;;;;;;;5100335;27;20047;-61
2022/08/11 04:18:33;;;;;;;11.15;7.07;;;;;;;;;;5091732;28;20555;-61
2022/08/11 04:21:09;;;;;;;14.45;6.65;;;;;;;;;;5091569;28;20122;-61
2022/08/11 04:23:39;;;;;;;13.93;9.30;;;;;;;;;;5084456;28;20035;-62
2022/08/11 04:26:24;;;;;;;15.15;7.50;;;;;;;;;;5085721;28;20138;-61
2022/08/11 04:29:14;;;;;;;15.52;7.43;;;;;;;;;;5078910;28;20071;-61
2022/08/11 04:31:41;;;;;;;13.73;6.10;;;;;;;;;;5076761;28;20052;-61
2022/08/11 04:34:32;;;;;;;11.52;7.43;;;;;;;;;;5070680;28;20040;-61
2022/08/11 04:39:52;;;;;;;10.68;8.00;;;;;;;;;;5075887;28;20052;-61
2022/08/11 04:45:47;;;;;;;12.43;6.32;;;;;;;;;;5071228;28;20041;-61
2022/08/11 05:02:58;;;;;;;17.55;6.72;;;;;;;;;;5070559;28;20121;-62
2022/08/11 05:05:51;;;;;;;7.95;4.50;;;;;;;;;;5074225;28;21361;-61
2022/08/11 05:08:21;;;;;;;6.32;3.90;;;;;;;;;;5075255;28;20035;-61
2022/08/11 05:10:56;;;;;;;6.82;4.82;;;;;;;;;;5074054;28;20056;-65
2022/08/11 05:36:16;;;;;;;14.45;9.50;;;;;;;;;;5107247;27;20039;-61
2022/08/11 05:58:07;;;;;;;15.85;12.77;;;;;;;;;;5096018;28;20126;-60
2022/08/11 06:00:46;;;;;;;17.70;12.27;;;;;;;;;;5099562;27;20051;-60
2022/08/11 06:03:22;;;;;;;14.98;11.45;;;;;;;;;;5104962;27;20410;-60
2022/08/11 06:05:48;;;;;;;19.85;12.60;;;;;;;;;;5106330;27;20038;-60
2022/08/11 06:08:14;;;;;;;19.00;12.77;;;;;;;;;;5112602;27;20371;-60
2022/08/11 06:10:42;;;;;;;18.13;12.45;;;;;;;;;;5111385;27;20039;-61
2022/08/11 06:13:09;;;;;;;15.32;11.20;;;;;;;;;;5105834;27;20043;-60
2022/08/11 06:15:46;;;;;;;16.30;11.98;;;;;;;;;;5115141;27;20096;-61
2022/08/11 06:18:13;;;;;;;14.73;11.00;;;;;;;;;;5117802;27;20074;-61
2022/08/11 06:20:48;;;;;;;16.35;11.77;;;;;;;;;;5125611;27;20490;-61
2022/08/11 06:23:17;;;;;;;15.48;10.95;;;;;;;;;;5122805;27;20365;-60
2022/08/11 06:25:44;;;;;;;15.68;10.48;;;;;;;;;;5124268;27;20514;-60
2022/08/11 06:28:10;;;;;;;16.35;11.73;;;;;;;;;;5129759;27;20431;-60
2022/08/11 06:30:39;;;;;;;20.33;10.73;;;;;;;;;;5114444;27;20046;-60
2022/08/11 06:33:21;;;;;;;21.15;11.02;;;;;;;;;;5134986;27;20086;-60
2022/08/11 06:35:48;;;;;;;13.52;10.55;;;;;;;;;;5128656;27;20090;-61
2022/08/11 06:38:21;;;;;;;14.48;10.60;;;;;;;;;;5131049;27;20034;-61
2022/08/11 06:43:46;;;;;;;14.52;10.93;;;;;;;;;;5127095;27;20042;-61
2022/08/11 06:46:14;;;;;;;14.20;10.35;;;;;;;;;;5131615;27;20134;-61
2022/08/11 06:48:41;;;;;;;16.30;10.82;;;;;;;;;;5129006;27;20050;-61
2022/08/11 06:51:15;;;;;;;15.57;10.15;;;;;;;;;;5132416;27;20042;-60
2022/08/11 06:53:49;;;;;;;11.25;9.07;;;;;;;;;;5143104;27;20035;-60
2022/08/11 07:01:50;;;;;;;13.38;8.93;;;;;;;;;;5125890;27;20047;-61
2022/08/11 07:04:27;;;;;;;15.52;8.18;;;;;;;;;;5148018;27;20494;-61
2022/08/11 07:15:43;;;;;;;11.90;7.63;;;;;;;;;;5145297;27;20049;-60
2022/08/11 07:29:37;;;;;;;13.13;7.10;;;;;;;;;;5142648;27;20045;-61
2022/08/11 07:32:12;;;;;;;11.63;6.70;;;;;;;;;;5148937;27;20058;-61
2022/08/11 07:34:40;;;;;;;10.23;6.50;;;;;;;;;;5145571;27;20039;-61
2022/08/11 07:37:16;;;;;;;11.65;5.90;;;;;;;;;;5150400;27;20050;-60
2022/08/11 07:39:43;;;;;;;9.68;4.80;;;;;;;;;;5148466;27;20039;-61
2022/08/11 07:42:11;;;;;;;8.60;4.32;;;;;;;;;;5149163;27;20041;-61
2022/08/11 07:52:55;;;;;;;19.05;4.55;;;;;;;;;;5147064;27;20406;-61
2022/08/11 07:55:24;;;;;;;7.45;4.00;;;;;;;;;;5148468;27;20425;-61
2022/08/11 08:19:54;;;;;;;8.05;3.40;;;;;;;;;;5150816;27;20108;-61
2022/08/11 08:22:21;;;;;;;9.88;3.10;;;;;;;;;;5146119;27;20054;-61
2022/08/11 08:24:47;;;;;;;8.40;3.17;;;;;;;;;;5145497;27;20039;-61
2022/08/11 08:27:14;;;;;;;9.73;3.00;;;;;;;;;;5148448;27;20401;-61
2022/08/11 08:32:31;;;;;;;5.50;3.42;;;;;;;;;;5145811;27;20507;-61
2022/08/11 08:34:58;;;;;;;8.32;3.88;;;;;;;;;;5132833;27;20513;-61
2022/08/11 08:37:25;;;;;;;5.68;3.47;;;;;;;;;;5145758;27;20050;-61
2022/08/11 08:39:52;;;;;;;9.05;4.60;;;;;;;;;;5147896;27;20074;-61
2022/08/11 08:42:21;;;;;;;7.80;3.42;;;;;;;;;;5146304;27;20037;-61
2022/08/11 08:44:51;;;;;;;6.95;3.22;;;;;;;;;;5147524;27;20125;-61
2022/08/11 08:47:18;;;;;;;8.20;3.20;;;;;;;;;;5151538;27;20039;-61
2022/08/11 08:49:48;;;;;;;8.20;3.55;;;;;;;;;;5145288;27;20505;-60
2022/08/11 08:52:16;;;;;;;6.78;3.22;;;;;;;;;;5130503;27;20081;-61
2022/08/11 08:54:44;;;;;;;6.93;3.88;;;;;;;;;;5145395;27;20400;-61
2022/08/11 08:57:10;;;;;;;7.93;3.28;;;;;;;;;;5150103;27;20035;-61
2022/08/11 08:59:39;;;;;;;7.88;3.58;;;;;;;;;;5137498;27;20041;-61
2022/08/11 09:02:06;;;;;;;10.70;3.80;;;;;;;;;;5147890;27;20087;-61
2022/08/11 09:04:33;;;;;;;6.78;3.72;;;;;;;;;;5148201;27;20042;-61
2022/08/11 09:07:02;;;;;;;7.60;3.58;;;;;;;;;;5142381;27;20042;-61
2022/08/11 09:09:28;;;;;;;8.77;3.58;;;;;;;;;;5144307;27;20399;-61
2022/08/11 09:11:55;;;;;;;6.95;3.10;;;;;;;;;;5138518;27;21443;-61
2022/08/11 09:14:23;;;;;;;9.55;3.40;;;;;;;;;;5149777;27;20038;-61
2022/08/11 09:16:50;;;;;;;5.90;3.30;;;;;;;;;;5125166;27;20059;-61
2022/08/11 09:19:17;;;;;;;4.57;3.08;;;;;;;;;;5148710;27;20172;-61
2022/08/11 09:26:58;;;;;;;5.88;3.67;;;;;;;;;;5145085;27;20047;-61
2022/08/11 09:27:17;;;;;;;6.60;3.20;;;;;;;;;;5140198;27;20038;-61
2022/08/11 09:29:44;;;;;;;7.97;2.90;;;;;;;;;;5110050;27;20050;-61
2022/08/11 09:32:11;;;;;;;9.95;2.75;;;;;;;;;;5120153;27;20081;-61
2022/08/11 09:34:38;;;;;;;6.97;3.50;;;;;;;;;;5136346;27;20066;-61
2022/08/11 09:45:20;;;;;;;5.07;2.30;;;;;;;;;;5136532;27;20108;-61
2022/08/11 09:47:47;;;;;;;6.88;2.45;;;;;;;;;;5137920;27;20038;-61
2022/08/11 09:50:15;;;;;;;7.32;2.80;;;;;;;;;;5133022;27;20055;-61
2022/08/11 09:52:44;;;;;;;7.72;2.08;;;;;;;;;;5131840;27;20058;-61
2022/08/11 09:55:13;;;;;;;7.55;2.72;;;;;;;;;;5127685;27;20056;-61
2022/08/11 10:00:36;;;;;;;7.28;2.22;;;;;;;;;;5130635;27;20171;-62
2022/08/11 10:03:05;;;;;;;6.28;2.47;;;;;;;;;;5122805;27;20103;-65
2022/08/11 10:08:19;;;;;;;6.18;1.75;;;;;;;;;;5126270;27;20050;-63
2022/08/11 10:10:46;;;;;;;6.03;1.95;;;;;;;;;;5127782;27;20054;-64
2022/08/11 10:13:16;;;;;;;3.58;1.70;;;;;;;;;;5123299;27;20145;-64
2022/08/11 10:15:44;;;;;;;4.57;1.50;;;;;;;;;;5110064;27;20054;-63
2022/08/11 10:21:00;;;;;;;6.38;1.83;;;;;;;;;;5126583;27;20062;-65
2022/08/11 10:26:54;;;;;;;5.88;1.92;;;;;;;;;;5125491;27;20127;-65
2022/08/11 10:34:45;;;;;;;9.45;1.98;;;;;;;;;;5124406;27;20039;-65
2022/08/11 10:37:11;;;;;;;4.30;1.73;;;;;;;;;;5120862;27;20038;-65
2022/08/11 10:39:39;;;;;;;6.43;1.80;;;;;;;;;;5127817;27;20142;-65
2022/08/11 10:44:51;;;;;;;3.90;1.40;;;;;;;;;;5125374;27;20042;-65
2022/08/11 10:47:33;;;;;;;3.65;1.42;;;;;;;;;;5123852;27;20046;-65
2022/08/11 11:01:04;;;;;;;5.32;1.33;;;;;;;;;;5121020;27;20527;-65
2022/08/11 11:03:33;;;;;;;3.55;1.40;;;;;;;;;;5127800;27;20156;-65
2022/08/11 11:06:12;;;;;;;6.47;1.48;;;;;;;;;;5131419;27;20043;-63
2022/08/11 11:08:52;;;;;;;5.95;1.60;;;;;;;;;;5128053;27;20035;-63
2022/08/11 11:11:19;;;;;;;4.25;1.60;;;;;;;;;;5129153;27;20050;-63
2022/08/11 11:19:21;;;;;;;4.75;1.40;;;;;;;;;;5131177;27;20043;-63
2022/08/11 11:21:50;;;;;;;6.15;1.27;;;;;;;;;;5135556;27;20139;-63
2022/08/11 11:24:38;;;;;;;4.20;1.45;;;;;;;;;;5127287;27;20027;-63
2022/08/11 11:27:11;;;;;;;3.10;1.15;;;;;;;;;;5132781;27;20050;-63
2022/08/11 11:29:45;;;;;;;7.22;1.25;;;;;;;;;;5127907;27;20046;-63
2022/08/11 11:32:25;;;;;;;3.10;1.33;;;;;;;;;;5131837;27;20043;-63
2022/08/11 11:34:58;;;;;;;4.32;1.40;;;;;;;;;;5126063;27;20402;-63
2022/08/11 11:37:24;;;;;;;3.38;1.13;;;;;;;;;;5131820;27;20327;-63
2022/08/11 11:39:52;;;;;;;5.85;1.25;;;;;;;;;;5125775;27;20084;-63
2022/08/11 11:42:19;;;;;;;5.45;1.23;;;;;;;;;;5128640;27;20662;-63
2022/08/11 11:44:46;;;;;;;3.80;1.40;;;;;;;;;;5131891;27;20486;-63
2022/08/11 11:47:13;;;;;;;5.45;1.20;;;;;;;;;;5128941;27;20080;-63
2022/08/11 11:49:42;;;;;;;4.25;1.17;;;;;;;;;;5130990;27;20475;-63
2022/08/11 11:52:13;;;;;;;3.90;1.42;;;;;;;;;;5110470;27;20170;-66
2022/08/11 11:54:40;;;;;;;2.42;1.10;;;;;;;;;;5127283;27;20572;-65
2022/08/11 12:02:39;;;;;;;4.80;0.90;;;;;;;;;;5113031;27;20460;-65
2022/08/11 12:05:07;;;;;;;3.75;1.40;;;;;;;;;;5110465;27;20229;-63
2022/08/11 12:10:18;;;;;;;6.40;1.10;;;;;;;;;;5129417;27;20040;-64
2022/08/11 12:15:30;;;;;;;4.80;1.38;;;;;;;;;;5130081;27;20035;-62
2022/08/11 12:17:57;;;;;;;5.07;1.15;;;;;;;;;;5116536;27;20089;-78
2022/08/11 12:20:24;;;;;;;4.38;1.25;;;;;;;;;;5115206;27;20461;-66
2022/08/11 12:28:21;;;;;;;3.78;1.00;;;;;;;;;;5126830;27;20035;-65
2022/08/11 12:30:49;;;;;;;5.20;1.13;;;;;;;;;;5123773;27;20404;-64
2022/08/11 12:33:15;;;;;;;3.65;1.02;;;;;;;;;;5107736;27;20162;-66
2022/08/11 12:35:42;;;;;;;4.80;1.10;;;;;;;;;;5126029;27;20474;-63
2022/08/11 12:38:09;;;;;;;5.63;1.20;;;;;;;;;;5092879;27;20042;-72
2022/08/11 12:46:12;;;;;;;3.85;1.10;;;;;;;;;;5130512;27;20038;-65
2022/08/11 12:54:15;;;;;;;3.97;1.30;;;;;;;;;;5113725;27;20054;-65
2022/08/11 13:05:02;;;;;;;10.98;1.30;;;;;;;;;;5112881;27;20051;-64
2022/08/11 13:07:30;;;;;;;6.65;1.40;;;;;;;;;;5130062;27;20114;-64
2022/08/11 13:09:57;;;;;;;3.83;1.48;;;;;;;;;;5129769;27;20067;-65
2022/08/11 13:15:10;;;;;;;5.95;1.38;;;;;;;;;;5106746;27;20663;-62
2022/08/11 13:17:37;;;;;;;4.68;1.15;;;;;;;;;;5127734;27;20046;-62
2022/08/11 13:20:05;;;;;;;3.30;1.42;;;;;;;;;;5132604;27;20043;-62
2022/08/11 13:22:31;;;;;;;5.32;1.30;;;;;;;;;;5133948;27;20058;-62
2022/08/11 13:24:58;;;;;;;5.22;1.15;;;;;;;;;;5128115;27;20043;-73
2022/08/11 13:27:24;;;;;;;7.25;1.50;;;;;;;;;;5111527;27;20050;-62
2022/08/11 13:31:09;;;;;;;5.50;1.60;;;;;;;;;;5128226;27;20039;-63
2022/08/11 13:32:39;;;;;;;6.22;1.10;;;;;;;;;;5128382;27;20051;-62
2022/08/11 13:35:05;;;;;;;5.13;1.38;;;;;;;;;;5124624;27;20040;-74
2022/08/11 13:37:33;;;;;;;4.20;1.40;;;;;;;;;;5108885;27;20054;-61
2022/08/11 13:40:01;;;;;;;3.85;1.30;;;;;;;;;;5128486;27;20053;-62
2022/08/11 13:42:27;;;;;;;6.32;1.55;;;;;;;;;;5127486;27;20062;-63
2022/08/11 13:44:55;;;;;;;3.47;1.08;;;;;;;;;;5126584;27;20536;-62
2022/08/11 13:47:22;;;;;;;5.82;1.17;;;;;;;;;;5105901;27;20043;-70
2022/08/11 13:49:49;;;;;;;5.55;1.30;;;;;;;;;;5103228;27;20046;-63
2022/08/11 13:52:16;;;;;;;4.75;1.20;;;;;;;;;;5124344;27;20051;-61
2022/08/11 13:54:43;;;;;;;7.53;1.20;;;;;;;;;;5128090;27;20034;-61
2022/08/11 13:57:11;;;;;;;4.63;1.20;;;;;;;;;;5124063;27;20046;-62
2022/08/11 13:59:38;;;;;;;6.05;1.30;;;;;;;;;;5132034;27;20038;-61
2022/08/11 14:02:08;;;;;;;4.55;1.15;;;;;;;;;;5131245;27;20117;-62
2022/08/11 14:04:38;;;;;;;8.02;1.23;;;;;;;;;;5136206;27;20528;-62
2022/08/11 14:07:05;;;;;;;4.00;1.08;;;;;;;;;;5127046;27;20043;-62
2022/08/11 14:09:34;;;;;;;3.72;1.27;;;;;;;;;;5125381;27;20035;-62
2022/08/11 14:14:49;;;;;;;8.18;1.20;;;;;;;;;;5121639;27;20043;-62
2022/08/11 14:17:16;;;;;;;7.22;1.15;;;;;;;;;;5130799;27;20437;-76
2022/08/11 14:19:44;;;;;;;8.00;1.42;;;;;;;;;;5127905;27;20330;-61
2022/08/11 14:22:13;;;;;;;4.43;1.40;;;;;;;;;;5110210;27;20049;-70
2022/08/11 14:24:41;;;;;;;5.50;1.23;;;;;;;;;;5129042;27;20142;-61
2022/08/11 14:27:08;;;;;;;6.25;1.20;;;;;;;;;;5126569;27;20505;-62
2022/08/11 14:29:37;;;;;;;4.75;1.15;;;;;;;;;;5124420;27;20063;-68
2022/08/11 14:32:06;;;;;;;6.57;1.45;;;;;;;;;;5123109;27;20047;-61
2022/08/11 14:34:33;;;;;;;5.57;1.70;;;;;;;;;;5125638;27;20041;-60
2022/08/11 14:37:02;;;;;;;11.00;1.42;;;;;;;;;;5120643;27;20263;-62
2022/08/11 14:39:29;;;;;;;4.53;1.33;;;;;;;;;;5124760;27;20035;-63
2022/08/11 14:47:32;;;;;;;5.22;1.40;;;;;;;;;;5129917;27;20398;-63
2022/08/11 14:49:59;;;;;;;5.43;1.40;;;;;;;;;;5126747;27;20047;-63
2022/08/11 14:52:26;;;;;;;6.65;1.27;;;;;;;;;;5132788;27;20050;-63
2022/08/11 14:57:39;;;;;;;4.72;1.25;;;;;;;;;;5131163;27;20422;-63
2022/08/11 15:00:06;;;;;;;4.53;1.10;;;;;;;;;;5130631;27;20218;-63
2022/08/11 15:05:23;;;;;;;7.05;1.27;;;;;;;;;;5126725;27;20047;-63
2022/08/11 15:07:49;;;;;;;5.75;1.25;;;;;;;;;;5121236;27;20057;-63
2022/08/11 15:10:17;;;;;;;9.65;1.52;;;;;;;;;;5126813;27;20103;-63
2022/08/11 15:12:43;;;;;;;5.13;1.30;;;;;;;;;;5118296;27;20055;-63
2022/08/11 15:17:58;;;;;;;6.28;1.20;;;;;;;;;;5121352;27;20051;-63
2022/08/11 15:25:58;;;;;;;4.00;1.55;;;;;;;;;;5123779;27;20126;-62
2022/08/11 15:39:35;;;;;;;7.32;1.13;;;;;;;;;;5134499;27;20092;-63
2022/08/11 15:47:44;;;;;;;4.40;1.10;;;;;;;;;;5131045;27;20047;-63
2022/08/11 15:50:15;;;;;;;4.38;1.65;;;;;;;;;;5131351;27;20477;-63
2022/08/11 15:52:45;;;;;;;6.22;1.33;;;;;;;;;;5114736;27;20058;-63
2022/08/11 15:55:12;;;;;;;7.75;1.73;;;;;;;;;;5133193;27;20172;-63
2022/08/11 16:05:56;;;;;;;6.20;1.35;;;;;;;;;;5112718;27;20051;-63
2022/08/11 16:08:24;;;;;;;5.55;1.60;;;;;;;;;;5132847;27;20141;-62
2022/08/11 16:10:50;;;;;;;4.22;1.40;;;;;;;;;;5135301;27;20516;-62
2022/08/11 16:18:40;;;;;;;5.78;1.65;;;;;;;;;;5132549;27;20055;-63
2022/08/11 16:21:09;;;;;;;6.95;1.52;;;;;;;;;;5138059;27;20135;-62
2022/08/11 16:23:36;;;;;;;5.15;1.30;;;;;;;;;;5131576;27;20054;-62
2022/08/11 16:26:03;;;;;;;4.32;1.40;;;;;;;;;;5142459;27;20043;-62
2022/08/11 16:28:30;;;;;;;5.68;1.30;;;;;;;;;;5138128;27;20039;-62
2022/08/11 16:30:57;;;;;;;4.90;1.20;;;;;;;;;;5103058;27;20080;-62
2022/08/11 16:33:23;;;;;;;6.40;1.58;;;;;;;;;;5103639;27;20098;-63
2022/08/11 16:38:37;;;;;;;3.25;1.40;;;;;;;;;;5121346;27;21127;-62
2022/08/11 16:41:13;;;;;;;8.40;1.42;;;;;;;;;;5125933;27;20113;-68
2022/08/11 16:49:16;;;;;;;5.40;1.20;;;;;;;;;;5131498;27;20442;-63
2022/08/11 16:51:43;;;;;;;70.82;5.22;;;;;;;;;;5128162;27;20050;-63
2022/08/11 16:54:09;;;;;;;18.23;4.32;;;;;;;;;;5133157;27;20394;-63
2022/08/11 16:56:38;;;;;;;6.25;1.50;;;;;;;;;;5136288;27;20039;-62
2022/08/11 16:59:16;;;;;;;5.15;1.67;;;;;;;;;;5116349;27;20054;-63
2022/08/11 17:01:45;;;;;;;4.78;1.67;;;;;;;;;;5126331;27;20179;-62
2022/08/11 17:18:06;;;;;;;7.88;1.50;;;;;;;;;;5129115;27;20749;-63
2022/08/11 17:20:33;;;;;;;6.53;2.03;;;;;;;;;;5092935;27;20059;-63
2022/08/11 17:25:47;;;;;;;5.82;1.55;;;;;;;;;;5132554;27;20189;-63
2022/08/11 17:28:14;;;;;;;4.82;1.83;;;;;;;;;;5135208;27;20115;-63
2022/08/11 17:36:13;;;;;;;6.28;1.60;;;;;;;;;;5133386;27;20126;-63
2022/08/11 17:38:41;;;;;;;6.10;2.10;;;;;;;;;;5130871;27;20115;-62
2022/08/11 17:49:24;;;;;;;5.15;1.70;;;;;;;;;;5126631;27;21388;-62
2022/08/11 18:00:08;;;;;;;7.28;2.00;;;;;;;;;;5129653;27;20118;-62
2022/08/11 18:05:23;;;;;;;9.07;2.20;;;;;;;;;;5126211;27;20035;-62
